メインページ
METAR-TAF:

METAR-TAF

空港 :

ノーフォーク島空港

ノーフォーク島, オーストラリア

緯度: 29-02S, 経度: 167-56E, 海抜: 113m

現時点の気象観測

当レポートは39分前の16:30(UTC)に作成
南/南東の風 11kt
気温 16°C
湿度 82%
気圧 1019 hPa
視程10km以上
高度1100ftの雲は散在している
高度1800ftの雲は散在している
高度4500ftの雲は散在している

METAR: YSNF 221630Z AUTO 15011KT 9999 // SCT011 SCT018 SCT045 16/13 Q1019

時間: 03:09 (17:09 UTC)

予報

当レポートは5時間19分前の11:50(UTC)に作成
予報は22日の 12時(UTC)から 23日の 12時(UTC)まで有効
南/南東の風 11kt
視程: 5000m
高度2000ftの雲は散在している
高度3000ftの雲は散在している
高度1500ftの千切れ雲あり
弱いにわか雨, にわか雨

TAF: YSNF 221150Z 2212/2312 15011KT 9999 -SHRA SCT020 SCT030 INTER 2212/2312 5000 SHRA BKN015

4,000以上の空港の気象観測と天気予報(METAR報とTAF報)

利用可能な観測所は地図上に黄色い丸と赤い丸で示す。

丸の上にカーソルを重ねると観測所名を参照できる。

次にクリックすると気象観測と天気予報を参照できる。

マップの切り替え:黒色「×」印の緑ボタンをクリックして拡大、「-」印の緑ボタンをクリックして縮小、緑色の三角印をクリックして隣りの地図に切り替え


METAR-TAF: